Time;durP1;ratioP1;P1;durP2;ratioP2;P2;SDS_P1;SDS_P2;PMS_P1;PMS_P2;Temp;Humidity;BMP_temperature;BMP_pressure;BME280_temperature;BME280_humidity;BME280_pressure;Samples;Min_cycle;Max_cycle;Signal;HPM_P1;HPM_P2
2023/04/19 00:00:33;;;;;;;13.27;11.63;;;10.30;99.90;;;;;;4948435;29;20220;-73
2023/04/19 00:02:59;;;;;;;13.70;12.30;;;10.30;99.90;;;;;;4946056;28;20647;-73
2023/04/19 00:05:25;;;;;;;12.33;11.23;;;10.40;99.90;;;;;;4949496;29;20460;-72
2023/04/19 00:07:50;;;;;;;14.90;12.27;;;10.40;99.90;;;;;;4951518;29;20527;-73
2023/04/19 00:10:16;;;;;;;12.53;11.23;;;10.30;99.90;;;;;;4950937;29;20181;-72
2023/04/19 00:12:41;;;;;;;14.03;12.53;;;10.30;99.90;;;;;;4951597;29;20181;-72
2023/04/19 00:15:07;;;;;;;10.63;9.73;;;10.30;99.90;;;;;;4950755;28;20205;-73
2023/04/19 00:17:33;;;;;;;12.90;10.93;;;10.30;99.90;;;;;;4949399;29;20628;-72
2023/04/19 00:19:59;;;;;;;13.33;12.00;;;10.30;99.90;;;;;;4948336;29;20185;-72
2023/04/19 00:22:25;;;;;;;12.30;11.07;;;10.30;99.90;;;;;;4953745;29;20439;-72
2023/04/19 00:24:51;;;;;;;13.33;10.43;;;10.30;99.90;;;;;;4954064;29;20200;-74
2023/04/19 00:27:17;;;;;;;11.93;10.57;;;10.30;99.90;;;;;;4955374;28;20451;-73
2023/04/19 00:29:42;;;;;;;13.53;12.13;;;10.40;99.90;;;;;;4954857;29;20440;-74
2023/04/19 00:32:08;;;;;;;12.47;11.17;;;10.30;99.90;;;;;;4954304;29;20799;-72
2023/04/19 00:34:34;;;;;;;13.40;11.97;;;10.30;99.90;;;;;;4954581;29;20201;-72
2023/04/19 00:36:59;;;;;;;13.57;11.80;;;10.20;99.90;;;;;;4954145;29;20232;-73
2023/04/19 00:39:25;;;;;;;12.20;11.03;;;10.20;99.90;;;;;;4953600;29;20597;-72
2023/04/19 00:41:51;;;;;;;14.50;13.00;;;10.30;99.90;;;;;;4952109;28;20661;-72
2023/04/19 00:44:17;;;;;;;14.40;11.93;;;10.30;99.90;;;;;;4952956;28;20320;-72
2023/04/19 00:46:43;;;;;;;13.87;12.10;;;10.30;99.90;;;;;;4954187;29;20519;-72
2023/04/19 00:49:09;;;;;;;14.30;12.67;;;10.30;99.90;;;;;;4952808;29;20799;-73
2023/04/19 00:51:35;;;;;;;14.63;13.20;;;10.30;99.90;;;;;;4954432;29;20180;-73
2023/04/19 00:54:02;;;;;;;13.10;11.80;;;10.30;99.90;;;;;;4951717;28;20475;-72
2023/04/19 00:56:28;;;;;;;12.63;11.33;;;10.20;99.90;;;;;;4953799;29;20563;-72
2023/04/19 00:58:55;;;;;;;14.70;12.60;;;10.20;99.90;;;;;;4952870;28;20436;-72
2023/04/19 01:01:21;;;;;;;13.87;12.43;;;10.20;99.90;;;;;;4951340;29;20588;-73
2023/04/19 01:03:47;;;;;;;15.50;12.03;;;10.20;99.90;;;;;;4954065;28;20533;-72
2023/04/19 01:06:13;;;;;;;13.20;11.80;;;10.20;99.90;;;;;;4952766;29;20558;-71
2023/04/19 01:08:39;;;;;;;14.90;12.63;;;10.20;99.90;;;;;;4953791;29;20558;-72
2023/04/19 01:11:06;;;;;;;15.50;12.77;;;10.20;99.90;;;;;;4953623;29;20447;-73
2023/04/19 01:13:32;;;;;;;17.30;13.50;;;10.10;99.90;;;;;;4951826;29;20556;-73
2023/04/19 01:15:58;;;;;;;14.53;12.97;;;10.00;99.90;;;;;;4953276;29;21177;-73
2023/04/19 01:18:24;;;;;;;14.40;12.60;;;10.00;99.90;;;;;;4951760;29;20183;-71
2023/04/19 01:20:50;;;;;;;15.27;13.77;;;10.00;99.90;;;;;;4953654;28;20476;-71
2023/04/19 01:23:16;;;;;;;13.20;11.90;;;10.00;99.90;;;;;;4951081;29;20476;-72
2023/04/19 01:25:42;;;;;;;14.60;12.90;;;10.10;99.90;;;;;;4952061;29;20456;-73
2023/04/19 01:28:07;;;;;;;15.40;12.83;;;10.10;99.90;;;;;;4950377;29;20177;-72
2023/04/19 01:30:34;;;;;;;16.17;13.47;;;10.10;99.90;;;;;;4952810;28;20196;-72
2023/04/19 01:32:59;;;;;;;14.47;12.30;;;10.10;99.90;;;;;;4952755;29;20184;-71
2023/04/19 01:35:25;;;;;;;12.83;11.53;;;10.10;99.90;;;;;;4952934;28;20826;-72
2023/04/19 01:37:54;;;;;;;13.80;12.40;;;10.00;99.90;;;;;;4953907;29;20216;-72
2023/04/19 01:40:21;;;;;;;15.20;13.17;;;10.00;99.90;;;;;;4948493;29;20181;-71
2023/04/19 01:42:46;;;;;;;15.37;13.73;;;10.00;99.90;;;;;;4949962;29;20453;-73
2023/04/19 01:45:12;;;;;;;15.60;13.53;;;10.00;99.90;;;;;;4953379;29;21154;-72
2023/04/19 01:47:37;;;;;;;14.70;12.87;;;10.00;99.90;;;;;;4954565;29;20666;-72
2023/04/19 01:50:03;;;;;;;15.00;13.30;;;10.00;99.90;;;;;;4951351;29;20208;-72
2023/04/19 01:52:29;;;;;;;13.77;12.10;;;10.00;99.90;;;;;;4951798;29;20196;-72
2023/04/19 01:54:54;;;;;;;15.73;13.67;;;10.00;99.90;;;;;;4950090;29;20212;-72
2023/04/19 01:57:20;;;;;;;13.90;12.43;;;10.10;99.90;;;;;;4952085;29;20570;-73
2023/04/19 01:59:45;;;;;;;15.03;13.13;;;10.10;99.90;;;;;;4953669;29;20185;-72
2023/04/19 02:02:11;;;;;;;16.27;13.83;;;10.10;99.90;;;;;;4953692;29;20191;-72
2023/04/19 02:04:36;;;;;;;17.43;14.77;;;10.10;99.90;;;;;;4949881;29;20208;-73
2023/04/19 02:07:02;;;;;;;19.03;14.10;;;10.00;99.90;;;;;;4953822;29;20243;-72
2023/04/19 02:09:27;;;;;;;15.87;14.23;;;10.10;99.90;;;;;;4951363;29;20189;-72
2023/04/19 02:11:53;;;;;;;20.10;16.47;;;10.10;99.90;;;;;;4956151;28;20193;-73
2023/04/19 02:14:18;;;;;;;16.63;14.70;;;10.10;99.90;;;;;;4952626;29;20212;-71
2023/04/19 02:16:44;;;;;;;17.07;13.47;;;10.10;99.90;;;;;;4950677;29;20297;-72
2023/04/19 02:19:09;;;;;;;20.50;15.20;;;10.10;99.90;;;;;;4952594;28;20189;-72
2023/04/19 02:21:35;;;;;;;19.67;13.20;;;10.00;99.90;;;;;;4952491;29;20621;-72
2023/04/19 02:24:00;;;;;;;15.73;14.03;;;10.10;99.90;;;;;;4949767;29;20185;-72
2023/04/19 02:26:26;;;;;;;17.10;14.40;;;10.00;99.90;;;;;;4953048;28;20248;-72
2023/04/19 02:28:52;;;;;;;16.73;15.07;;;10.00;99.90;;;;;;4951902;29;20219;-72
2023/04/19 02:31:17;;;;;;;14.27;12.77;;;10.00;99.90;;;;;;4953178;29;20185;-72
2023/04/19 02:33:45;;;;;;;18.30;15.60;;;10.00;99.90;;;;;;4952038;29;20181;-72
2023/04/19 02:36:11;;;;;;;16.07;14.40;;;10.00;99.90;;;;;;4953131;29;20252;-72
2023/04/19 02:38:36;;;;;;;17.37;14.63;;;10.00;99.90;;;;;;4949164;29;20871;-71
2023/04/19 02:41:03;;;;;;;17.60;14.77;;;10.00;99.90;;;;;;4951581;29;20181;-72
2023/04/19 02:43:29;;;;;;;18.00;14.13;;;10.10;99.90;;;;;;4950734;28;20272;-72
2023/04/19 02:45:54;;;;;;;17.03;15.33;;;10.10;99.90;;;;;;4951245;29;20475;-72
2023/04/19 02:48:20;;;;;;;21.10;15.80;;;10.10;99.90;;;;;;4951821;29;20441;-73
2023/04/19 02:50:46;;;;;;;20.70;15.73;;;10.10;99.90;;;;;;4952081;29;20555;-72
2023/04/19 02:53:11;;;;;;;18.50;16.57;;;10.10;99.90;;;;;;4949606;29;20177;-72
2023/04/19 02:55:37;;;;;;;18.50;15.40;;;10.00;99.90;;;;;;4952026;28;20201;-72
2023/04/19 02:58:02;;;;;;;17.00;15.10;;;10.10;99.90;;;;;;4952964;29;20193;-72
2023/04/19 03:00:28;;;;;;;17.53;14.30;;;10.00;99.90;;;;;;4950449;29;20189;-73
2023/04/19 03:02:55;;;;;;;17.10;14.57;;;10.00;99.90;;;;;;4952100;28;20184;-73
2023/04/19 03:05:21;;;;;;;17.37;14.80;;;10.00;99.90;;;;;;4948451;28;20196;-72
2023/04/19 03:07:46;;;;;;;19.13;15.80;;;9.90;99.90;;;;;;4952403;29;20436;-72
2023/04/19 03:10:12;;;;;;;19.40;14.93;;;9.90;99.90;;;;;;4949967;28;20455;-70
2023/04/19 03:12:37;;;;;;;19.47;15.50;;;9.90;99.90;;;;;;4952329;29;20192;-71
2023/04/19 03:15:03;;;;;;;20.17;16.37;;;9.90;99.90;;;;;;4952014;29;20207;-71
2023/04/19 03:17:28;;;;;;;17.60;15.23;;;9.90;99.90;;;;;;4949615;29;20256;-72
2023/04/19 03:19:55;;;;;;;17.67;13.90;;;9.90;99.90;;;;;;4951037;29;20189;-71
2023/04/19 03:22:20;;;;;;;19.23;15.93;;;9.90;99.90;;;;;;4952214;29;20216;-71
2023/04/19 03:24:46;;;;;;;18.37;16.00;;;9.90;99.90;;;;;;4952579;29;20492;-70
2023/04/19 03:27:12;;;;;;;16.30;14.10;;;9.90;99.90;;;;;;4945203;29;20216;-71
2023/04/19 03:29:37;;;;;;;17.07;15.27;;;9.90;99.90;;;;;;4947941;29;20239;-71
2023/04/19 03:32:03;;;;;;;19.90;15.67;;;10.00;99.90;;;;;;4951485;29;20197;-74
2023/04/19 03:34:28;;;;;;;18.43;16.43;;;10.00;99.90;;;;;;4950602;29;20635;-73
2023/04/19 03:36:54;;;;;;;17.13;15.33;;;10.00;99.90;;;;;;4950238;29;20204;-72
2023/04/19 03:39:20;;;;;;;19.10;16.60;;;10.00;99.90;;;;;;4951914;29;20647;-73
2023/04/19 03:41:45;;;;;;;19.07;16.33;;;10.00;99.90;;;;;;4952492;29;20446;-71
2023/04/19 03:44:11;;;;;;;17.83;16.07;;;9.90;99.90;;;;;;4950329;29;20315;-70
2023/04/19 03:46:36;;;;;;;18.90;15.67;;;9.90;99.90;;;;;;4950087;29;20216;-75
2023/04/19 03:49:02;;;;;;;18.53;16.63;;;9.90;99.90;;;;;;4951548;29;20185;-71
2023/04/19 03:51:27;;;;;;;17.83;15.87;;;9.90;99.90;;;;;;4950347;29;20189;-75
2023/04/19 03:53:53;;;;;;;18.40;16.50;;;9.90;99.90;;;;;;4951618;28;20236;-73
2023/04/19 03:56:18;;;;;;;17.63;15.73;;;9.80;99.90;;;;;;4952443;29;20862;-73
2023/04/19 03:58:44;;;;;;;20.20;17.27;;;9.70;99.90;;;;;;4954863;29;20188;-73
2023/04/19 04:01:20;;;;;;;19.13;16.53;;;9.80;99.90;;;;;;4951150;29;20239;-73
2023/04/19 04:03:45;;;;;;;16.90;15.23;;;9.80;99.90;;;;;;4943719;29;20235;-73
2023/04/19 04:06:11;;;;;;;18.37;16.40;;;9.80;99.90;;;;;;4948199;29;20468;-72
2023/04/19 04:08:37;;;;;;;24.13;19.57;;;9.70;99.90;;;;;;4949612;28;21139;-73
2023/04/19 04:11:02;;;;;;;22.67;17.97;;;9.70;99.90;;;;;;4951983;29;21659;-73
2023/04/19 04:13:28;;;;;;;20.03;16.90;;;9.70;99.90;;;;;;4954488;29;20197;-73
2023/04/19 04:15:53;;;;;;;21.37;17.60;;;9.70;99.90;;;;;;4953878;28;20570;-71
2023/04/19 04:18:19;;;;;;;19.47;17.43;;;9.70;99.90;;;;;;4955523;28;20177;-71
2023/04/19 04:20:44;;;;;;;19.70;17.60;;;9.70;99.90;;;;;;4947810;29;20658;-70
2023/04/19 04:23:10;;;;;;;20.90;17.80;;;9.70;99.90;;;;;;4954495;28;20723;-71
2023/04/19 04:25:36;;;;;;;22.43;16.87;;;9.70;99.90;;;;;;4955732;29;20229;-72
2023/04/19 04:28:03;;;;;;;20.90;17.33;;;9.80;99.90;;;;;;4954145;28;20190;-71
2023/04/19 04:30:29;;;;;;;19.27;17.23;;;9.80;99.90;;;;;;4953131;29;20464;-73
2023/04/19 04:32:56;;;;;;;24.37;18.60;;;9.80;99.90;;;;;;4954417;28;20436;-73
2023/04/19 04:35:22;;;;;;;23.83;18.90;;;9.80;99.90;;;;;;4954712;29;20470;-74
2023/04/19 04:37:48;;;;;;;20.70;18.57;;;9.70;99.90;;;;;;4948059;29;20475;-74
2023/04/19 04:40:14;;;;;;;18.37;16.40;;;9.80;99.90;;;;;;4935189;29;20280;-74
2023/04/19 04:42:41;;;;;;;20.90;17.40;;;9.70;99.90;;;;;;4953940;29;20174;-74
2023/04/19 04:45:09;;;;;;;18.70;16.67;;;9.70;99.90;;;;;;4950929;28;20503;-73
2023/04/19 04:47:35;;;;;;;17.73;15.83;;;9.70;99.90;;;;;;4952385;29;20877;-74
2023/04/19 04:50:02;;;;;;;21.60;17.50;;;9.70;99.90;;;;;;4953766;29;20467;-72
2023/04/19 04:52:28;;;;;;;19.73;17.07;;;9.60;99.90;;;;;;4948181;29;20804;-74
2023/04/19 04:54:54;;;;;;;20.60;17.00;;;9.60;99.90;;;;;;4956411;29;20455;-73
2023/04/19 04:57:20;;;;;;;18.80;16.50;;;9.60;99.90;;;;;;4955269;29;20468;-76
2023/04/19 04:59:46;;;;;;;20.50;18.23;;;9.70;99.90;;;;;;4955894;29;20169;-76
2023/04/19 05:02:13;;;;;;;19.00;17.10;;;9.70;99.90;;;;;;4953919;29;20243;-73
2023/04/19 05:04:38;;;;;;;21.10;16.57;;;9.70;99.90;;;;;;4955676;28;20472;-76
2023/04/19 05:07:04;;;;;;;20.50;16.10;;;9.70;99.90;;;;;;4955279;28;20481;-76
2023/04/19 05:09:29;;;;;;;19.23;17.23;;;9.70;99.90;;;;;;4955663;29;20553;-76
2023/04/19 05:11:55;;;;;;;19.03;16.10;;;9.70;99.90;;;;;;4954300;29;20215;-73
2023/04/19 05:14:21;;;;;;;23.87;17.87;;;9.70;99.90;;;;;;4956248;28;20184;-74
2023/04/19 05:16:46;;;;;;;19.60;16.53;;;9.70;99.90;;;;;;4955969;29;20234;-75
2023/04/19 05:19:12;;;;;;;17.80;15.63;;;9.70;99.90;;;;;;4955620;29;20177;-74
2023/04/19 05:21:37;;;;;;;21.13;18.10;;;9.80;99.90;;;;;;4955814;29;20176;-76
2023/04/19 05:24:03;;;;;;;20.23;16.67;;;9.80;99.90;;;;;;4958652;28;20179;-74
2023/04/19 05:26:29;;;;;;;18.17;16.27;;;9.80;99.90;;;;;;4955585;28;20193;-74
2023/04/19 05:28:55;;;;;;;19.40;16.53;;;9.80;99.90;;;;;;4955279;29;20499;-74
2023/04/19 05:31:21;;;;;;;19.87;17.03;;;9.80;99.90;;;;;;4955588;29;20200;-72
2023/04/19 05:33:46;;;;;;;20.80;17.33;;;9.70;99.90;;;;;;4955435;29;20853;-74
2023/04/19 05:36:12;;;;;;;20.97;16.83;;;9.70;99.90;;;;;;4947380;28;20473;-74
2023/04/19 05:38:37;;;;;;;19.70;17.53;;;9.70;99.90;;;;;;4951037;29;20655;-74
2023/04/19 05:41:04;;;;;;;21.80;16.90;;;9.60;99.90;;;;;;4955350;29;20224;-73
2023/04/19 05:43:30;;;;;;;22.17;20.03;;;9.60;99.90;;;;;;4955407;29;20195;-73
2023/04/19 05:45:55;;;;;;;18.63;16.13;;;9.60;99.90;;;;;;4937824;29;20974;-76
2023/04/19 05:48:21;;;;;;;21.00;18.80;;;9.70;99.90;;;;;;4953891;29;20184;-74
2023/04/19 05:50:46;;;;;;;19.80;16.60;;;9.60;99.90;;;;;;4955202;29;20192;-73
2023/04/19 05:53:12;;;;;;;19.90;16.67;;;9.70;99.90;;;;;;4946514;29;20224;-73
2023/04/19 05:55:37;;;;;;;21.83;18.20;;;9.60;99.90;;;;;;4944384;29;20193;-73
2023/04/19 05:58:03;;;;;;;22.10;18.63;;;9.60;99.90;;;;;;4939209;29;20205;-72
2023/04/19 06:00:29;;;;;;;18.30;16.40;;;9.70;99.90;;;;;;4951684;29;20216;-72
2023/04/19 06:02:54;;;;;;;18.63;16.60;;;9.80;99.90;;;;;;4952435;29;20239;-75
2023/04/19 06:05:20;;;;;;;23.47;16.03;;;9.80;99.90;;;;;;4954661;28;20670;-73
2023/04/19 06:07:45;;;;;;;24.57;17.57;;;9.80;99.90;;;;;;4937475;28;20173;-73
2023/04/19 06:10:11;;;;;;;23.83;17.63;;;9.70;99.90;;;;;;4954172;28;20292;-75
2023/04/19 06:12:36;;;;;;;19.83;15.87;;;9.80;99.90;;;;;;4953620;28;20215;-76
2023/04/19 06:15:02;;;;;;;17.70;15.47;;;9.70;99.90;;;;;;4954726;28;20562;-76
2023/04/19 06:17:28;;;;;;;19.00;16.63;;;9.70;99.90;;;;;;4935866;29;20209;-75
2023/04/19 06:19:53;;;;;;;19.33;16.70;;;9.70;99.90;;;;;;4952340;29;20185;-75
2023/04/19 06:22:20;;;;;;;20.50;16.50;;;9.80;99.90;;;;;;4954585;29;20169;-76
2023/04/19 06:24:46;;;;;;;22.07;16.17;;;9.90;99.90;;;;;;4954584;29;20321;-75
2023/04/19 06:27:12;;;;;;;22.23;17.40;;;9.90;99.90;;;;;;4954544;29;20464;-74
2023/04/19 06:29:37;;;;;;;21.10;16.50;;;10.00;99.90;;;;;;4953285;29;20471;-75
2023/04/19 06:32:03;;;;;;;18.87;16.27;;;10.00;99.90;;;;;;4954372;29;20420;-75
2023/04/19 06:34:28;;;;;;;20.57;17.33;;;10.10;99.90;;;;;;4954437;28;20197;-76
2023/04/19 06:36:54;;;;;;;19.47;16.70;;;10.20;99.90;;;;;;4954390;29;20236;-74
2023/04/19 06:39:19;;;;;;;19.43;16.27;;;10.30;99.90;;;;;;4954185;29;20176;-75
2023/04/19 06:41:45;;;;;;;23.63;17.40;;;10.40;99.90;;;;;;4953599;29;20192;-75
2023/04/19 06:44:12;;;;;;;23.03;17.00;;;10.40;99.90;;;;;;4954075;28;20301;-74
2023/04/19 06:46:37;;;;;;;20.70;17.33;;;10.50;99.90;;;;;;4954268;29;20223;-75
2023/04/19 06:49:03;;;;;;;19.30;16.67;;;10.50;99.90;;;;;;4954061;29;20424;-76
2023/04/19 06:51:29;;;;;;;18.57;15.47;;;10.50;99.90;;;;;;4954250;29;20173;-75
2023/04/19 06:53:54;;;;;;;17.93;16.03;;;10.50;99.90;;;;;;4952559;29;20181;-75
2023/04/19 06:56:39;;;;;;;22.60;18.43;;;10.60;99.90;;;;;;4953184;29;21223;-74
2023/04/19 06:59:05;;;;;;;19.63;16.00;;;10.70;99.90;;;;;;4953979;29;20180;-75
2023/04/19 07:01:30;;;;;;;18.70;16.70;;;10.80;99.90;;;;;;4953998;28;20420;-76
2023/04/19 07:03:56;;;;;;;19.20;16.00;;;10.80;99.90;;;;;;4954123;29;20180;-75
2023/04/19 07:06:21;;;;;;;17.20;15.00;;;10.80;99.90;;;;;;4952849;29;20211;-75
2023/04/19 07:08:47;;;;;;;18.33;15.07;;;10.80;99.90;;;;;;4953668;29;20191;-75
2023/04/19 07:11:12;;;;;;;18.93;15.80;;;10.80;99.90;;;;;;4954072;29;20181;-76
2023/04/19 07:13:38;;;;;;;22.83;18.17;;;10.90;99.90;;;;;;4953869;29;20643;-75
2023/04/19 07:16:04;;;;;;;19.60;16.23;;;10.80;99.90;;;;;;4952458;28;20209;-74
2023/04/19 07:18:29;;;;;;;18.40;16.43;;;10.90;99.90;;;;;;4936347;29;20169;-74
2023/04/19 07:20:55;;;;;;;15.83;14.07;;;10.90;99.90;;;;;;4954067;29;20417;-76
2023/04/19 07:23:21;;;;;;;18.30;14.57;;;10.90;99.90;;;;;;4954053;29;20520;-75
2023/04/19 07:25:58;;;;;;;17.60;15.20;;;11.00;99.90;;;;;;4954100;28;20189;-74
2023/04/19 07:28:30;;;;;;;17.60;14.57;;;11.10;99.90;;;;;;4935605;29;20209;-76
2023/04/19 07:30:56;;;;;;;18.30;15.20;;;11.20;99.90;;;;;;4940355;29;20943;-76
2023/04/19 07:33:26;;;;;;;16.00;14.30;;;11.10;99.90;;;;;;4958143;29;20977;-75
2023/04/19 07:35:53;;;;;;;21.80;14.07;;;11.20;99.90;;;;;;4940898;29;20491;-75
2023/04/19 07:38:22;;;;;;;15.27;13.73;;;11.30;99.90;;;;;;4955766;29;20435;-75
2023/04/19 07:40:47;;;;;;;20.80;16.30;;;11.40;99.90;;;;;;4940303;29;20424;-76
2023/04/19 07:43:13;;;;;;;23.73;16.53;;;11.50;99.90;;;;;;4957547;29;20822;-75
2023/04/19 07:45:39;;;;;;;18.70;16.37;;;11.50;99.90;;;;;;4957469;28;20208;-74
2023/04/19 07:48:05;;;;;;;16.70;14.90;;;11.50;99.90;;;;;;4957605;29;20231;-75
2023/04/19 07:50:31;;;;;;;18.83;14.77;;;11.60;99.90;;;;;;4956282;29;20444;-75
2023/04/19 07:52:56;;;;;;;17.60;15.70;;;11.70;99.90;;;;;;4957467;29;20180;-74
2023/04/19 07:55:22;;;;;;;18.57;15.20;;;11.90;99.90;;;;;;4957323;28;20284;-75
2023/04/19 07:57:48;;;;;;;14.90;13.40;;;12.10;99.90;;;;;;4954735;29;20217;-75
2023/04/19 08:00:15;;;;;;;15.90;14.20;;;12.30;99.90;;;;;;4956890;29;20301;-75
2023/04/19 08:02:44;;;;;;;19.37;14.83;;;12.40;99.90;;;;;;4957246;29;20788;-75
2023/04/19 08:05:16;;;;;;;15.70;13.60;;;12.60;99.90;;;;;;4957181;28;20494;-74
2023/04/19 08:07:42;;;;;;;17.27;14.50;;;13.00;99.90;;;;;;4954467;29;20555;-75
2023/04/19 08:10:11;;;;;;;14.17;12.70;;;13.20;99.90;;;;;;4956116;29;20448;-75
2023/04/19 08:12:37;;;;;;;18.90;14.80;;;13.20;99.90;;;;;;4957046;29;20436;-74
2023/04/19 08:15:06;;;;;;;16.80;14.20;;;13.20;99.90;;;;;;4956937;28;20454;-73
2023/04/19 08:17:31;;;;;;;15.40;12.90;;;13.20;99.90;;;;;;4956934;29;20464;-75
2023/04/19 08:19:57;;;;;;;15.20;13.60;;;13.20;99.90;;;;;;4950841;29;20443;-73
2023/04/19 08:22:22;;;;;;;14.03;12.70;;;13.40;99.90;;;;;;4956855;29;20176;-74
2023/04/19 08:24:50;;;;;;;13.67;12.37;;;13.60;99.90;;;;;;4955982;29;20301;-75
2023/04/19 08:27:16;;;;;;;15.83;13.40;;;13.80;99.90;;;;;;4956782;29;20180;-73
2023/04/19 08:29:42;;;;;;;14.93;13.27;;;13.70;99.90;;;;;;4956448;29;20810;-75
2023/04/19 08:32:07;;;;;;;13.83;12.43;;;13.80;99.90;;;;;;4955848;29;20197;-75
2023/04/19 08:34:37;;;;;;;15.13;13.73;;;13.70;99.90;;;;;;4955957;29;20261;-74
2023/04/19 08:37:03;;;;;;;14.80;13.37;;;13.70;99.90;;;;;;4956934;29;20647;-75
2023/04/19 08:39:29;;;;;;;13.37;11.90;;;13.80;99.90;;;;;;4956374;29;20429;-74
2023/04/19 08:41:58;;;;;;;12.50;11.40;;;14.00;99.90;;;;;;4955491;28;20424;-73
2023/04/19 08:44:25;;;;;;;18.17;16.23;;;13.90;99.90;;;;;;4955218;29;20456;-74
2023/04/19 08:46:51;;;;;;;13.97;12.67;;;13.90;99.90;;;;;;4956467;29;20425;-75
2023/04/19 08:49:19;;;;;;;11.70;10.57;;;14.00;99.90;;;;;;4956341;29;20430;-74
2023/04/19 08:51:47;;;;;;;11.93;10.83;;;14.20;99.90;;;;;;4956483;29;20228;-75
2023/04/19 08:54:14;;;;;;;13.97;10.67;;;14.30;99.90;;;;;;4956382;28;20427;-74
2023/04/19 08:56:39;;;;;;;11.83;10.63;;;14.60;99.90;;;;;;4955582;29;20464;-75
2023/04/19 08:59:05;;;;;;;11.83;10.60;;;14.90;99.90;;;;;;4956177;29;20435;-75
2023/04/19 09:01:31;;;;;;;10.07;9.17;;;15.00;99.90;;;;;;4956555;29;20802;-75
2023/04/19 09:03:57;;;;;;;11.40;10.20;;;14.90;99.90;;;;;;4956554;29;20195;-73
2023/04/19 09:06:22;;;;;;;19.20;10.63;;;14.80;99.90;;;;;;4956168;28;20961;-75
2023/04/19 09:08:50;;;;;;;11.20;10.20;;;14.90;99.90;;;;;;4954955;29;20189;-75
2023/04/19 09:11:15;;;;;;;12.37;10.77;;;14.90;99.90;;;;;;4955542;29;20659;-75
2023/04/19 09:13:43;;;;;;;11.53;10.53;;;14.70;99.90;;;;;;4955739;28;20444;-75
2023/04/19 09:16:25;;;;;;;11.67;10.40;;;14.70;99.90;;;;;;4955969;29;20204;-75
2023/04/19 09:18:54;;;;;;;11.07;9.70;;;14.70;99.90;;;;;;4955675;29;20421;-73
2023/04/19 09:21:27;;;;;;;12.37;10.37;;;14.60;99.90;;;;;;4954482;28;20432;-75
2023/04/19 09:23:53;;;;;;;12.27;10.97;;;14.50;99.90;;;;;;4955997;29;20431;-74
2023/04/19 09:26:18;;;;;;;11.70;10.50;;;14.80;99.90;;;;;;4956074;28;20440;-75
2023/04/19 09:29:07;;;;;;;11.97;10.67;;;14.90;99.90;;;;;;4955720;29;20551;-75
2023/04/19 09:31:37;;;;;;;11.70;10.53;;;15.20;99.90;;;;;;4951982;29;20305;-74
2023/04/19 09:34:13;;;;;;;11.63;10.30;;;15.50;99.90;;;;;;4956184;29;20433;-74
2023/04/19 09:36:39;;;;;;;11.60;10.50;;;16.00;99.90;;;;;;4956326;29;20599;-74
2023/04/19 09:39:05;;;;;;;12.87;10.83;;;16.60;99.90;;;;;;4956344;29;20945;-74
2023/04/19 09:41:36;;;;;;;11.67;10.47;;;16.90;99.90;;;;;;4956415;29;20504;-74
2023/04/19 09:44:14;;;;;;;12.03;10.83;;;16.90;99.90;;;;;;4955204;28;20508;-74
2023/04/19 09:46:41;;;;;;;11.93;10.83;;;17.00;99.90;;;;;;4983268;23;20913;-67
2023/04/19 09:49:14;;;;;;;12.20;10.90;;;17.70;99.90;;;;;;4973993;28;20796;-68
2023/04/19 09:51:40;;;;;;;12.43;11.33;;;18.40;99.90;;;;;;4974243;28;20427;-69
2023/04/19 09:54:07;;;;;;;15.23;11.90;;;18.40;99.90;;;;;;4956531;28;20810;-69
2023/04/19 09:56:33;;;;;;;12.97;11.10;;;18.10;99.90;;;;;;4974321;28;20559;-69
2023/04/19 09:58:59;;;;;;;14.13;12.67;;;18.20;99.90;;;;;;4974225;28;20835;-69
2023/04/19 10:01:27;;;;;;;12.20;11.00;;;17.90;99.90;;;;;;4974420;28;20454;-69
2023/04/19 10:03:53;;;;;;;13.30;12.10;;;17.60;99.90;;;;;;4974337;28;20305;-69
2023/04/19 10:06:20;;;;;;;14.87;11.90;;;17.70;99.90;;;;;;4972458;28;20466;-70
2023/04/19 10:08:47;;;;;;;13.70;12.50;;;17.80;99.90;;;;;;4975688;28;20423;-69
2023/04/19 10:11:13;;;;;;;13.07;11.47;;;17.50;99.90;;;;;;4972417;28;20451;-69
2023/04/19 10:13:40;;;;;;;12.30;11.27;;;17.10;99.90;;;;;;4975736;28;20431;-69
2023/04/19 10:16:06;;;;;;;13.13;11.83;;;17.20;99.90;;;;;;4974750;28;20573;-69
2023/04/19 10:18:31;;;;;;;11.43;10.40;;;17.80;99.90;;;;;;4969397;28;20423;-70
2023/04/19 10:21:05;;;;;;;12.60;11.50;;;18.60;99.90;;;;;;4980133;28;20164;-69
2023/04/19 10:23:32;;;;;;;12.20;11.10;;;19.10;98.20;;;;;;4979982;28;20696;-69
2023/04/19 10:25:58;;;;;;;11.03;9.50;;;19.40;97.40;;;;;;4974253;28;20432;-69
2023/04/19 10:28:26;;;;;;;12.97;11.83;;;18.60;97.30;;;;;;4972718;28;20432;-69
2023/04/19 10:31:03;;;;;;;11.30;10.17;;;18.20;99.10;;;;;;4973776;28;21161;-69
2023/04/19 10:33:33;;;;;;;12.53;10.83;;;18.90;97.50;;;;;;4973982;28;20774;-69
2023/04/19 10:35:59;;;;;;;10.87;9.67;;;19.80;95.50;;;;;;4973696;28;20498;-69
2023/04/19 10:38:36;;;;;;;11.43;10.43;;;19.70;94.40;;;;;;4973561;28;20498;-69
2023/04/19 10:41:03;;;;;;;10.90;9.80;;;19.60;95.00;;;;;;4971646;28;20440;-69
2023/04/19 10:43:32;;;;;;;11.53;10.33;;;19.40;95.00;;;;;;4965551;28;20430;-69
2023/04/19 10:46:00;;;;;;;11.33;10.33;;;19.60;94.80;;;;;;4973569;28;20470;-69
2023/04/19 10:48:29;;;;;;;13.47;12.27;;;19.80;94.10;;;;;;4973397;28;20423;-69
2023/04/19 10:51:01;;;;;;;12.50;11.37;;;19.10;96.10;;;;;;4972620;28;20832;-69
2023/04/19 10:53:56;;;;;;;11.77;10.67;;;18.60;97.90;;;;;;4971649;28;20773;-69
2023/04/19 10:56:33;;;;;;;11.00;10.10;;;18.00;99.30;;;;;;4973303;28;21024;-69
2023/04/19 10:59:10;;;;;;;11.20;10.00;;;17.40;99.90;;;;;;4973269;28;20450;-69
2023/04/19 11:01:45;;;;;;;11.77;10.77;;;17.00;99.90;;;;;;4972359;28;20766;-69
2023/04/19 11:04:22;;;;;;;11.87;10.63;;;16.80;99.90;;;;;;4964523;28;20447;-69
2023/04/19 11:06:53;;;;;;;11.40;10.30;;;16.40;99.90;;;;;;4973426;28;20450;-68
2023/04/19 11:09:29;;;;;;;12.13;10.70;;;16.00;99.90;;;;;;4973300;28;20789;-69
2023/04/19 11:12:04;;;;;;;13.63;11.00;;;15.60;99.90;;;;;;4973369;28;20427;-68
2023/04/19 11:14:32;;;;;;;12.53;10.97;;;15.20;99.90;;;;;;4964264;28;20853;-68
2023/04/19 11:16:58;;;;;;;12.67;11.10;;;15.10;99.90;;;;;;4973182;28;20467;-69
2023/04/19 11:19:23;;;;;;;12.40;10.20;;;14.90;99.90;;;;;;4973158;28;20763;-68
2023/04/19 11:21:49;;;;;;;12.00;10.80;;;14.60;99.90;;;;;;4973293;28;20411;-69
2023/04/19 11:24:17;;;;;;;11.33;10.20;;;14.80;99.90;;;;;;4972879;28;20243;-68
2023/04/19 11:26:44;;;;;;;16.70;11.17;;;14.70;99.90;;;;;;4972574;28;20254;-68
2023/04/19 11:29:10;;;;;;;11.27;10.27;;;14.50;99.90;;;;;;4973043;28;20442;-68
2023/04/19 11:31:36;;;;;;;13.47;12.10;;;14.30;99.90;;;;;;4973307;28;20473;-67
2023/04/19 11:34:02;;;;;;;12.43;11.27;;;14.30;99.90;;;;;;4973181;28;20419;-67
2023/04/19 11:36:28;;;;;;;12.40;11.13;;;14.30;99.90;;;;;;4964043;28;20204;-67
2023/04/19 11:38:53;;;;;;;12.33;11.17;;;14.10;99.90;;;;;;4972926;28;20427;-67
2023/04/19 11:41:19;;;;;;;13.67;12.27;;;13.80;99.90;;;;;;4973090;28;20177;-67
2023/04/19 11:43:45;;;;;;;13.30;11.23;;;13.70;99.90;;;;;;4973217;28;20180;-67
2023/04/19 11:46:12;;;;;;;13.73;12.33;;;13.60;99.90;;;;;;4971638;28;20707;-67
2023/04/19 11:48:38;;;;;;;13.57;12.13;;;13.40;99.90;;;;;;4963516;28;20773;-67
2023/04/19 11:51:04;;;;;;;14.40;12.03;;;13.30;99.90;;;;;;4964341;28;20440;-68
2023/04/19 11:53:31;;;;;;;13.50;12.17;;;13.20;99.90;;;;;;4972916;28;20427;-69
2023/04/19 11:56:05;;;;;;;14.00;12.60;;;13.10;99.90;;;;;;4966019;28;20457;-68
2023/04/19 11:58:43;;;;;;;15.00;11.57;;;12.90;99.90;;;;;;4971253;28;20788;-68
2023/04/19 12:01:11;;;;;;;12.57;11.37;;;12.70;99.90;;;;;;4973012;28;20780;-68
2023/04/19 12:03:41;;;;;;;14.97;13.50;;;12.70;99.90;;;;;;4972962;28;20506;-68
2023/04/19 12:06:11;;;;;;;13.73;12.37;;;12.60;99.90;;;;;;4965066;28;20449;-68
2023/04/19 12:08:43;;;;;;;13.70;12.17;;;12.60;99.90;;;;;;4971945;28;20415;-68
2023/04/19 12:11:09;;;;;;;13.93;12.47;;;12.60;99.90;;;;;;4972846;28;20783;-68
2023/04/19 12:13:35;;;;;;;16.00;12.97;;;12.50;99.90;;;;;;4972789;28;20412;-68
2023/04/19 12:16:02;;;;;;;15.27;13.77;;;12.50;99.90;;;;;;4975291;28;20572;-68
2023/04/19 12:18:40;;;;;;;18.77;14.30;;;12.40;99.90;;;;;;4967114;28;20436;-69
2023/04/19 12:21:05;;;;;;;18.70;14.80;;;12.30;99.90;;;;;;4976352;28;21149;-68
2023/04/19 12:23:31;;;;;;;17.37;15.57;;;12.20;99.90;;;;;;4976247;28;20455;-68
2023/04/19 12:25:56;;;;;;;16.33;14.73;;;12.00;99.90;;;;;;4976147;28;20242;-68
2023/04/19 12:28:22;;;;;;;19.27;17.17;;;11.90;99.90;;;;;;4973670;28;20591;-68